createdAt,value
2019-06-08T00:00:49.176Z,11.27
2019-06-08T00:03:18.580Z,10.10
2019-06-08T00:05:47.158Z,11.53
2019-06-08T00:08:16.763Z,11.43
2019-06-08T00:10:45.411Z,10.83
2019-06-08T00:13:15.086Z,11.90
2019-06-08T00:15:43.677Z,11.93
2019-06-08T00:18:13.164Z,12.00
2019-06-08T00:20:41.651Z,11.90
2019-06-08T00:23:10.087Z,12.30
2019-06-08T00:25:38.541Z,12.57
2019-06-08T00:28:06.982Z,13.33
2019-06-08T00:30:35.462Z,13.40
2019-06-08T00:33:03.898Z,11.93
2019-06-08T00:35:32.360Z,13.13
2019-06-08T00:38:00.799Z,12.90
2019-06-08T00:40:29.255Z,13.60
2019-06-08T00:42:57.704Z,13.07
2019-06-08T00:45:26.174Z,13.40
2019-06-08T00:47:54.610Z,13.97
2019-06-08T00:50:25.165Z,13.90
2019-06-08T00:52:53.729Z,13.93
2019-06-08T00:55:23.665Z,13.10
2019-06-08T00:57:52.303Z,14.10
2019-06-08T01:00:22.401Z,13.73
2019-06-08T01:02:51.135Z,13.77
2019-06-08T01:05:19.959Z,13.40
2019-06-08T01:07:48.484Z,14.03
2019-06-08T01:10:17.260Z,14.90
2019-06-08T01:12:45.732Z,15.03
2019-06-08T01:15:15.076Z,14.10
2019-06-08T01:17:43.595Z,14.37
2019-06-08T01:20:12.279Z,14.50
2019-06-08T01:22:40.731Z,13.37
2019-06-08T01:25:09.238Z,14.27
2019-06-08T01:27:37.703Z,14.90
2019-06-08T01:30:10.724Z,14.63
2019-06-08T01:32:39.178Z,15.10
2019-06-08T01:35:07.863Z,15.43
2019-06-08T01:37:36.319Z,14.57
2019-06-08T01:40:07.154Z,15.30
2019-06-08T01:42:35.609Z,16.07
2019-06-08T01:45:06.275Z,15.80
2019-06-08T01:47:34.729Z,16.10
2019-06-08T01:50:03.441Z,15.77
2019-06-08T01:52:32.981Z,15.87
2019-06-08T01:55:01.521Z,17.30
2019-06-08T01:57:31.460Z,16.13
2019-06-08T02:00:00.056Z,14.50
2019-06-08T02:02:29.902Z,12.73
2019-06-08T02:04:58.436Z,10.20
2019-06-08T02:07:26.880Z,7.17
2019-06-08T02:09:55.323Z,5.67
2019-06-08T02:12:24.801Z,4.07
2019-06-08T02:14:53.291Z,2.97
2019-06-08T02:17:21.739Z,2.10
2019-06-08T02:19:50.173Z,2.17
2019-06-08T02:22:18.635Z,1.93
2019-06-08T02:24:47.075Z,1.90
2019-06-08T02:27:15.518Z,2.17
2019-06-08T02:29:43.944Z,1.73
2019-06-08T02:32:12.390Z,1.90
2019-06-08T02:34:40.826Z,1.93
2019-06-08T02:37:09.247Z,1.77
2019-06-08T02:39:38.523Z,2.00
2019-06-08T02:42:08.023Z,1.90
2019-06-08T02:44:36.482Z,1.83
2019-06-08T02:47:04.981Z,2.00
2019-06-08T02:49:35.245Z,2.00
2019-06-08T02:52:03.822Z,2.03
2019-06-08T02:54:34.716Z,1.80
2019-06-08T02:57:04.902Z,1.73
2019-06-08T02:59:38.025Z,1.80
2019-06-08T03:02:07.387Z,1.83
2019-06-08T03:04:41.079Z,2.00
2019-06-08T03:07:10.545Z,1.83
2019-06-08T03:09:40.859Z,2.00
2019-06-08T03:12:09.582Z,1.97
2019-06-08T03:14:40.183Z,1.77
2019-06-08T03:17:09.735Z,2.00
2019-06-08T03:19:39.882Z,2.00
2019-06-08T03:22:10.769Z,1.90
2019-06-08T03:24:38.774Z,2.10
2019-06-08T03:27:07.310Z,1.90
2019-06-08T03:29:37.271Z,1.90
2019-06-08T03:32:05.930Z,1.97
2019-06-08T03:34:35.710Z,1.70
2019-06-08T03:37:04.519Z,1.57
2019-06-08T03:39:34.965Z,1.70
2019-06-08T03:42:03.129Z,1.60
2019-06-08T03:44:31.580Z,1.50
2019-06-08T03:47:00.012Z,1.77
2019-06-08T03:49:41.179Z,1.80
2019-06-08T03:51:59.186Z,2.00
2019-06-08T03:54:27.631Z,2.00
2019-06-08T03:56:56.054Z,1.90
2019-06-08T03:59:24.513Z,1.50
2019-06-08T04:01:53.027Z,1.80
2019-06-08T04:04:21.485Z,1.70
2019-06-08T04:06:50.137Z,1.80
2019-06-08T04:09:18.644Z,1.77
2019-06-08T04:11:47.073Z,1.73
2019-06-08T04:14:15.526Z,2.10
2019-06-08T04:16:44.486Z,1.70
2019-06-08T04:19:14.130Z,1.57
2019-06-08T04:21:44.149Z,1.50
2019-06-08T04:24:12.776Z,1.73
2019-06-08T04:26:42.898Z,1.40
2019-06-08T04:29:11.370Z,1.67
2019-06-08T04:31:39.811Z,1.70
2019-06-08T04:34:08.314Z,1.50
2019-06-08T04:36:36.759Z,1.53
2019-06-08T04:39:07.722Z,1.53
2019-06-08T04:41:36.170Z,1.40
2019-06-08T04:44:04.674Z,1.50
2019-06-08T04:46:33.123Z,2.10
2019-06-08T04:49:01.588Z,1.70
2019-06-08T04:51:30.099Z,1.63
2019-06-08T04:53:58.539Z,1.50
2019-06-08T04:56:26.979Z,1.77
2019-06-08T04:58:55.426Z,1.70
2019-06-08T05:01:23.911Z,1.60
2019-06-08T05:03:52.361Z,1.53
2019-06-08T05:06:20.808Z,1.37
2019-06-08T05:08:49.566Z,1.70
2019-06-08T05:11:18.282Z,1.73
2019-06-08T05:13:47.680Z,1.43
2019-06-08T05:16:16.630Z,1.67
2019-06-08T05:18:45.332Z,1.30
2019-06-08T05:21:13.789Z,1.30
2019-06-08T05:23:43.393Z,1.23
2019-06-08T05:26:11.947Z,1.30
2019-06-08T05:28:41.259Z,1.40
2019-06-08T05:31:09.809Z,1.40
2019-06-08T05:33:39.192Z,1.40
2019-06-08T05:36:07.785Z,1.10
2019-06-08T05:38:36.426Z,1.80
2019-06-08T05:41:04.883Z,1.27
2019-06-08T05:43:33.328Z,1.40
2019-06-08T05:46:01.785Z,1.40
2019-06-08T05:48:30.221Z,1.03
2019-06-08T05:51:03.937Z,1.10
2019-06-08T05:53:28.819Z,1.10
2019-06-08T05:55:57.273Z,1.40
2019-06-08T05:58:25.711Z,1.13
2019-06-08T06:00:54.162Z,1.20
2019-06-08T06:03:22.602Z,1.20
2019-06-08T06:05:51.050Z,1.50
2019-06-08T06:08:19.571Z,1.87
2019-06-08T06:10:48.927Z,1.30
2019-06-08T06:13:17.439Z,1.33
2019-06-08T06:15:47.096Z,1.50
2019-06-08T06:18:15.723Z,1.10
2019-06-08T06:20:45.365Z,1.13
2019-06-08T06:23:13.920Z,1.30
2019-06-08T06:25:43.355Z,1.40
2019-06-08T06:28:11.918Z,1.27
2019-06-08T06:30:41.503Z,1.27
2019-06-08T06:33:10.046Z,1.20
2019-06-08T06:35:38.475Z,1.30
2019-06-08T06:38:06.917Z,1.30
2019-06-08T06:40:35.354Z,1.50
2019-06-08T06:43:03.874Z,1.10
2019-06-08T06:45:32.301Z,1.20
2019-06-08T06:48:00.757Z,1.20
2019-06-08T06:50:29.192Z,1.30
2019-06-08T06:52:57.643Z,1.63
2019-06-08T06:55:26.087Z,1.00
2019-06-08T06:57:54.573Z,1.50
2019-06-08T07:00:32.772Z,1.37
2019-06-08T07:03:01.689Z,1.20
2019-06-08T07:05:30.119Z,1.00
2019-06-08T07:07:58.579Z,0.90
2019-06-08T07:10:27.014Z,1.23
2019-06-08T07:12:55.466Z,0.90
2019-06-08T07:15:28.182Z,1.20
2019-06-08T07:17:58.574Z,1.10
2019-06-08T07:20:27.262Z,1.20
2019-06-08T07:22:55.718Z,1.40
2019-06-08T07:25:24.143Z,0.90
2019-06-08T07:27:52.679Z,0.87
2019-06-08T07:30:21.496Z,1.10
2019-06-08T07:32:50.947Z,1.33
2019-06-08T07:35:19.547Z,1.20
2019-06-08T07:37:48.980Z,1.30
2019-06-08T07:40:18.195Z,1.30
2019-06-08T07:42:47.850Z,1.30
2019-06-08T07:45:16.891Z,0.90
2019-06-08T07:47:45.360Z,1.30
2019-06-08T07:50:14.535Z,1.07
2019-06-08T07:52:42.989Z,1.40
2019-06-08T07:55:11.906Z,1.17
2019-06-08T07:57:40.783Z,1.60
2019-06-08T08:00:09.943Z,1.10
2019-06-08T08:02:38.422Z,1.10
2019-06-08T08:05:07.398Z,1.00
2019-06-08T08:07:35.874Z,1.20
2019-06-08T08:10:09.023Z,1.00
2019-06-08T08:12:37.650Z,1.20
2019-06-08T08:15:09.421Z,1.20
2019-06-08T08:17:37.882Z,1.00
2019-06-08T08:20:08.210Z,1.30
2019-06-08T08:22:38.242Z,1.23
2019-06-08T08:25:10.685Z,0.87
2019-06-08T08:27:39.149Z,1.10
2019-06-08T08:30:08.460Z,1.00
2019-06-08T08:32:38.063Z,1.47
2019-06-08T08:35:08.767Z,1.20
2019-06-08T08:37:38.039Z,2.00
2019-06-08T08:40:07.866Z,1.73
2019-06-08T08:42:38.710Z,1.50
2019-06-08T08:45:08.659Z,1.23
2019-06-08T08:47:38.785Z,1.43
2019-06-08T08:50:08.556Z,1.77
2019-06-08T08:52:40.434Z,1.67
2019-06-08T08:55:08.266Z,1.20
2019-06-08T08:57:38.592Z,1.03
2019-06-08T09:00:09.260Z,1.20
2019-06-08T09:02:37.717Z,1.20
2019-06-08T09:05:08.341Z,1.47
2019-06-08T09:07:38.461Z,1.60
2019-06-08T09:10:10.759Z,2.60
2019-06-08T09:12:37.710Z,1.23
2019-06-08T09:15:08.557Z,1.43
2019-06-08T09:17:38.806Z,1.30
2019-06-08T09:20:13.058Z,1.20
2019-06-08T09:22:52.883Z,1.67
2019-06-08T09:25:09.062Z,1.20
2019-06-08T09:27:38.296Z,1.00
2019-06-08T09:30:08.328Z,1.70
2019-06-08T09:32:38.239Z,1.00
2019-06-08T09:35:09.121Z,0.90
2019-06-08T09:37:37.628Z,1.20
2019-06-08T09:40:06.393Z,1.27
2019-06-08T09:42:34.904Z,1.40
2019-06-08T09:45:05.735Z,1.13
2019-06-08T09:47:37.939Z,1.40
2019-06-08T09:50:09.247Z,2.10
2019-06-08T09:52:40.980Z,1.03
2019-06-08T09:55:09.553Z,1.33
2019-06-08T09:57:38.524Z,1.27
2019-06-08T10:00:15.418Z,1.20
2019-06-08T10:02:38.281Z,1.73
2019-06-08T10:05:07.041Z,2.43
2019-06-08T10:07:38.524Z,1.30
2019-06-08T10:10:09.772Z,2.10
2019-06-08T10:12:40.951Z,2.07
2019-06-08T10:15:10.016Z,1.57
2019-06-08T10:17:38.472Z,1.27
2019-06-08T10:20:09.992Z,1.20
2019-06-08T10:22:38.317Z,1.73
2019-06-08T10:25:10.793Z,1.27
2019-06-08T10:27:38.573Z,1.20
2019-06-08T10:30:10.133Z,2.00
2019-06-08T10:32:39.005Z,1.93
2019-06-08T10:35:10.524Z,1.90
2019-06-08T10:37:38.545Z,1.27
2019-06-08T10:40:07.857Z,1.10
2019-06-08T10:42:39.871Z,1.50
2019-06-08T10:45:12.494Z,1.67
2019-06-08T10:47:38.159Z,1.73
2019-06-08T10:50:15.125Z,1.30
2019-06-08T10:52:40.478Z,1.77
2019-06-08T10:55:10.489Z,1.83
2019-06-08T10:57:39.478Z,2.40
2019-06-08T11:00:24.014Z,1.80
2019-06-08T11:02:52.344Z,1.73
2019-06-08T11:05:20.848Z,1.47
2019-06-08T11:07:49.293Z,1.30
2019-06-08T11:10:19.093Z,1.40
2019-06-08T11:12:48.540Z,1.47
2019-06-08T11:15:17.313Z,2.57
2019-06-08T11:17:45.761Z,1.23
2019-06-08T11:20:14.267Z,1.40
2019-06-08T11:22:42.719Z,1.47
2019-06-08T11:25:16.090Z,1.43
2019-06-08T11:27:41.564Z,1.50
2019-06-08T11:30:20.073Z,1.40
2019-06-08T11:32:40.803Z,1.60
2019-06-08T11:35:12.352Z,1.40
2019-06-08T11:37:40.901Z,1.40
2019-06-08T11:40:12.387Z,1.47
2019-06-08T11:42:40.097Z,1.03
2019-06-08T11:45:11.126Z,1.60
2019-06-08T11:47:39.531Z,2.30
2019-06-08T11:50:11.655Z,1.43
2019-06-08T11:52:38.503Z,1.40
2019-06-08T11:55:10.968Z,1.23
2019-06-08T11:57:40.423Z,1.23
2019-06-08T12:00:23.484Z,1.67
2019-06-08T12:02:41.304Z,1.67
2019-06-08T12:05:12.434Z,1.30
2019-06-08T12:07:40.285Z,2.00
2019-06-08T12:10:10.515Z,1.40
2019-06-08T12:12:38.895Z,1.60
2019-06-08T12:15:11.201Z,1.60
2019-06-08T12:17:37.634Z,1.83
2019-06-08T12:20:08.633Z,1.40
2019-06-08T12:22:37.715Z,2.80
2019-06-08T12:25:08.172Z,1.80
2019-06-08T12:27:40.016Z,1.80
2019-06-08T12:30:12.048Z,1.70
2019-06-08T12:32:37.271Z,1.70
2019-06-08T12:35:08.189Z,1.93
2019-06-08T12:37:38.721Z,1.60
2019-06-08T12:40:09.747Z,1.30
2019-06-08T12:42:38.213Z,1.33
2019-06-08T12:45:07.370Z,1.87
2019-06-08T12:47:37.902Z,1.57
2019-06-08T12:50:09.020Z,1.63
2019-06-08T12:52:39.293Z,1.67
2019-06-08T12:55:14.427Z,1.43
2019-06-08T12:57:39.146Z,2.10
2019-06-08T13:00:10.264Z,1.60
2019-06-08T13:02:39.492Z,1.73
2019-06-08T13:05:12.443Z,1.70
2019-06-08T13:07:39.398Z,1.20
2019-06-08T13:10:08.839Z,1.57
2019-06-08T13:12:40.522Z,1.77
2019-06-08T13:15:08.503Z,1.43
2019-06-08T13:17:38.295Z,1.50
2019-06-08T13:20:22.194Z,1.50
2019-06-08T13:22:49.901Z,1.30
2019-06-08T13:25:31.106Z,1.60
2019-06-08T13:27:49.150Z,1.73
2019-06-08T13:30:22.592Z,1.37
2019-06-08T13:32:48.340Z,1.80
2019-06-08T13:35:19.140Z,1.63
2019-06-08T13:37:47.477Z,1.80
2019-06-08T13:40:19.925Z,1.67
2019-06-08T13:42:50.902Z,1.60
2019-06-08T13:45:18.984Z,1.70
2019-06-08T13:47:50.443Z,1.63
2019-06-08T13:50:20.398Z,2.10
2019-06-08T13:52:48.719Z,1.60
2019-06-08T13:55:36.493Z,2.27
2019-06-08T13:57:49.201Z,1.83
2019-06-08T14:00:19.205Z,1.40
2019-06-08T14:02:48.488Z,1.60
2019-06-08T14:05:25.739Z,1.57
2019-06-08T14:07:50.450Z,1.77
2019-06-08T14:10:22.922Z,1.90
2019-06-08T14:12:52.168Z,1.60
2019-06-08T14:15:21.429Z,1.53
2019-06-08T14:17:49.911Z,1.63
2019-06-08T14:20:23.246Z,1.80
2019-06-08T14:22:51.590Z,1.40
2019-06-08T14:25:21.737Z,2.00
2019-06-08T14:27:50.235Z,1.70
2019-06-08T14:30:20.564Z,1.80
2019-06-08T14:32:49.212Z,1.53
2019-06-08T14:35:20.626Z,1.70
2019-06-08T14:37:48.224Z,1.30
2019-06-08T14:40:17.306Z,1.20
2019-06-08T14:42:48.354Z,1.60
2019-06-08T14:45:18.169Z,1.60
2019-06-08T14:47:47.566Z,1.37
2019-06-08T14:50:18.488Z,1.60
2019-06-08T14:52:47.921Z,1.60
2019-06-08T14:55:18.746Z,1.60
2019-06-08T14:57:48.175Z,1.53
2019-06-08T15:00:21.285Z,1.33
2019-06-08T15:02:50.016Z,1.27
2019-06-08T15:05:19.850Z,1.33
2019-06-08T15:07:48.688Z,1.40
2019-06-08T15:10:18.213Z,1.30
2019-06-08T15:12:48.904Z,1.47
2019-06-08T15:15:18.411Z,1.40
2019-06-08T15:17:47.822Z,1.50
2019-06-08T15:20:17.635Z,1.47
2019-06-08T15:22:46.155Z,1.50
2019-06-08T15:25:14.760Z,1.40
2019-06-08T15:27:43.214Z,1.30
2019-06-08T15:30:12.286Z,1.40
2019-06-08T15:32:40.775Z,1.50
2019-06-08T15:35:09.386Z,1.50
2019-06-08T15:37:40.786Z,1.87
2019-06-08T15:40:08.470Z,1.37
2019-06-08T15:42:37.530Z,2.17
2019-06-08T15:45:08.355Z,1.50
2019-06-08T15:47:40.582Z,1.40
2019-06-08T15:50:08.820Z,1.47
2019-06-08T15:52:38.065Z,1.40
2019-06-08T15:55:10.901Z,1.30
2019-06-08T15:57:40.809Z,1.97
2019-06-08T16:00:10.188Z,1.40
2019-06-08T16:02:39.151Z,1.63
2019-06-08T16:05:08.096Z,1.30
2019-06-08T16:07:36.559Z,1.40
2019-06-08T16:10:08.259Z,1.43
2019-06-08T16:12:36.703Z,1.80
2019-06-08T16:15:08.010Z,1.50
2019-06-08T16:17:36.466Z,4.33
2019-06-08T16:20:05.547Z,1.43
2019-06-08T16:22:34.157Z,1.70
2019-06-08T16:25:02.591Z,1.40
2019-06-08T16:27:32.133Z,1.50
2019-06-08T16:30:00.666Z,1.60
2019-06-08T16:32:29.279Z,1.83
2019-06-08T16:34:57.748Z,1.47
2019-06-08T16:37:27.397Z,1.47
2019-06-08T16:39:55.904Z,1.60
2019-06-08T16:42:24.381Z,1.80
2019-06-08T16:44:52.885Z,1.30
2019-06-08T16:47:21.348Z,1.50
2019-06-08T16:49:49.774Z,1.70
2019-06-08T16:52:18.328Z,1.57
2019-06-08T16:54:46.849Z,1.63
2019-06-08T16:57:15.332Z,1.40
2019-06-08T16:59:43.774Z,1.50
2019-06-08T17:02:15.581Z,1.53
2019-06-08T17:04:42.391Z,1.40
2019-06-08T17:07:10.831Z,1.47
2019-06-08T17:09:40.052Z,1.30
2019-06-08T17:12:08.709Z,1.60
2019-06-08T17:14:38.361Z,1.77
2019-06-08T17:17:07.155Z,1.37
2019-06-08T17:19:36.277Z,1.60
2019-06-08T17:22:04.782Z,1.60
2019-06-08T17:24:34.442Z,1.50
2019-06-08T17:27:03.060Z,1.50
2019-06-08T17:29:32.726Z,1.77
2019-06-08T17:32:01.325Z,1.77
2019-06-08T17:34:29.846Z,1.80
2019-06-08T17:36:58.381Z,1.80
2019-06-08T17:39:29.368Z,1.33
2019-06-08T17:41:56.989Z,1.50
2019-06-08T17:44:25.448Z,1.67
2019-06-08T17:46:53.892Z,1.37
2019-06-08T17:49:22.343Z,1.50
2019-06-08T17:51:50.770Z,1.60
2019-06-08T17:54:19.221Z,1.47
2019-06-08T17:56:47.645Z,1.30
2019-06-08T17:59:16.299Z,1.73
2019-06-08T18:01:44.786Z,1.60
2019-06-08T18:04:13.241Z,1.27
2019-06-08T18:06:43.005Z,1.47
2019-06-08T18:09:11.913Z,1.60
2019-06-08T18:11:42.283Z,1.30
2019-06-08T18:14:11.226Z,1.50
2019-06-08T18:16:42.139Z,1.70
2019-06-08T18:19:18.535Z,1.50
2019-06-08T18:21:47.349Z,1.70
2019-06-08T18:24:17.514Z,1.43
2019-06-08T18:26:47.495Z,1.43
2019-06-08T18:29:18.167Z,1.87
2019-06-08T18:31:48.087Z,1.73
2019-06-08T18:34:17.816Z,1.47
2019-06-08T18:36:47.932Z,1.33
2019-06-08T18:39:18.018Z,1.43
2019-06-08T18:41:48.393Z,1.53
2019-06-08T18:44:17.494Z,1.50
2019-06-08T18:46:48.110Z,1.60
2019-06-08T18:49:17.916Z,1.60
2019-06-08T18:51:49.040Z,1.67
2019-06-08T18:54:18.836Z,2.03
2019-06-08T18:56:48.816Z,1.43
2019-06-08T18:59:18.470Z,1.57
2019-06-08T19:01:49.487Z,2.03
2019-06-08T19:04:17.311Z,1.70
2019-06-08T19:06:48.789Z,1.57
2019-06-08T19:09:17.222Z,1.67
2019-06-08T19:11:48.420Z,1.30
2019-06-08T19:14:17.958Z,1.80
2019-06-08T19:16:50.843Z,1.80
2019-06-08T19:19:16.176Z,2.00
2019-06-08T19:21:45.001Z,1.60
2019-06-08T19:24:13.551Z,1.60
2019-06-08T19:26:43.180Z,1.57
2019-06-08T19:29:12.156Z,2.10
2019-06-08T19:31:42.279Z,1.50
2019-06-08T19:34:10.775Z,1.87
2019-06-08T19:36:41.332Z,1.40
2019-06-08T19:39:09.395Z,1.60
2019-06-08T19:41:39.440Z,1.80
2019-06-08T19:44:08.058Z,1.90
2019-06-08T19:46:36.504Z,1.63
2019-06-08T19:49:04.981Z,1.80
2019-06-08T19:51:33.475Z,2.07
2019-06-08T19:54:01.912Z,2.00
2019-06-08T19:56:30.357Z,2.10
2019-06-08T19:59:04.036Z,2.10
2019-06-08T20:01:28.972Z,1.80
2019-06-08T20:03:58.042Z,2.10
2019-06-08T20:06:27.938Z,2.10
2019-06-08T20:08:57.489Z,1.90
2019-06-08T20:11:26.193Z,2.10
2019-06-08T20:13:54.630Z,1.90
2019-06-08T20:16:23.130Z,2.00
2019-06-08T20:18:52.923Z,2.03
2019-06-08T20:21:21.493Z,2.10
2019-06-08T20:23:50.962Z,1.90
2019-06-08T20:26:19.511Z,2.07
2019-06-08T20:28:51.249Z,2.00
2019-06-08T20:31:18.173Z,2.23
2019-06-08T20:33:50.230Z,2.57
2019-06-08T20:36:17.478Z,1.90
2019-06-08T20:38:47.419Z,2.10
2019-06-08T20:41:18.141Z,1.83
2019-06-08T20:43:49.920Z,2.40
2019-06-08T20:46:17.130Z,1.97
2019-06-08T20:48:48.387Z,2.00
2019-06-08T20:51:17.243Z,2.03
2019-06-08T20:53:49.061Z,1.83
2019-06-08T20:56:17.348Z,2.50
2019-06-08T20:58:47.912Z,2.20
2019-06-08T21:01:18.036Z,2.00
2019-06-08T21:03:48.242Z,2.10
2019-06-08T21:06:17.168Z,2.13
2019-06-08T21:08:46.616Z,1.93
2019-06-08T21:11:17.641Z,2.10
2019-06-08T21:13:49.308Z,2.00
2019-06-08T21:16:18.218Z,1.80
2019-06-08T21:18:46.853Z,2.07
2019-06-08T21:21:17.458Z,1.77
2019-06-08T21:23:48.908Z,2.03
2019-06-08T21:26:17.874Z,1.73
2019-06-08T21:28:49.835Z,1.97
2019-06-08T21:31:17.747Z,1.93
2019-06-08T21:33:49.083Z,2.00
2019-06-08T21:36:18.193Z,2.17
2019-06-08T21:38:49.424Z,2.20
2019-06-08T21:41:17.268Z,2.00
2019-06-08T21:43:45.751Z,2.07
2019-06-08T21:46:14.177Z,2.00
2019-06-08T21:48:42.639Z,1.90
2019-06-08T21:51:11.081Z,2.07
2019-06-08T21:53:39.513Z,1.67
2019-06-08T21:56:08.080Z,1.90
2019-06-08T21:58:37.790Z,1.70
2019-06-08T22:01:07.361Z,1.70
2019-06-08T22:03:38.017Z,1.90
2019-06-08T22:06:07.963Z,1.83
2019-06-08T22:08:37.625Z,1.80
2019-06-08T22:11:08.605Z,1.80
2019-06-08T22:13:37.474Z,1.70
2019-06-08T22:16:08.211Z,2.07
2019-06-08T22:18:38.007Z,1.77
2019-06-08T22:21:08.141Z,1.97
2019-06-08T22:23:36.531Z,1.73
2019-06-08T22:26:04.954Z,1.60
2019-06-08T22:28:33.382Z,1.80
2019-06-08T22:31:01.904Z,1.60
2019-06-08T22:33:30.347Z,1.60
2019-06-08T22:35:58.875Z,2.07
2019-06-08T22:38:27.309Z,1.80
2019-06-08T22:40:57.623Z,1.90
2019-06-08T22:43:25.913Z,1.83
2019-06-08T22:45:54.460Z,1.93
2019-06-08T22:48:22.981Z,2.10
2019-06-08T22:50:53.315Z,2.10
2019-06-08T22:53:21.594Z,1.90
2019-06-08T22:55:50.050Z,1.83
2019-06-08T22:58:19.171Z,2.13
2019-06-08T23:00:52.589Z,2.13
2019-06-08T23:03:18.600Z,1.87
2019-06-08T23:05:47.671Z,1.80
2019-06-08T23:08:17.537Z,1.80
2019-06-08T23:10:48.283Z,1.80
2019-06-08T23:13:17.971Z,2.10
2019-06-08T23:15:47.838Z,2.00
2019-06-08T23:18:17.918Z,2.03
2019-06-08T23:20:47.953Z,1.53
2019-06-08T23:23:17.886Z,1.80
2019-06-08T23:25:47.857Z,1.80
2019-06-08T23:28:18.117Z,1.80
2019-06-08T23:30:47.669Z,1.87
2019-06-08T23:33:18.902Z,1.53
2019-06-08T23:36:21.692Z,1.93
2019-06-08T23:38:17.346Z,1.80
2019-06-08T23:40:47.462Z,2.07
2019-06-08T23:43:18.120Z,1.57
2019-06-08T23:45:47.485Z,2.03
2019-06-08T23:48:17.435Z,2.00
2019-06-08T23:50:47.448Z,1.80
2019-06-08T23:53:18.060Z,2.00
2019-06-08T23:55:47.929Z,1.90
2019-06-08T23:58:17.536Z,1.93
